Crane Lake, Minnesota
Current Conditions -  °F | °C
As of 10:12 AM on Monday 26 Jan 2015 (Local Time) from KCDD Reporting Station
Light Snow Light Snow  
Wind Chill: 23°   Ceiling: 2600
Heat Index: 23°   Visibility: 3mi
Dew Point: 21°   Wind: 3mph
Humidity: 93%   Direction: 150°SSE
Pressure: 29.62"   Gusts: NA
Location:  48.27°N, 92.49°W
Report Text: KCDD 261612Z AUTO 15003KT 3SM -SN BKN026 OVC041 M05/M06 A2962 RMK AO2
Loading
Personal Weather Stations






























Interactive Weather Map New forecast layout! Learn more

10-Day Weather Forecast

Advertisements
Track Severe Weather on mobile